Time;durP1;ratioP1;P1;durP2;ratioP2;P2;SDS_P1;SDS_P2;PMS_P1;PMS_P2;Temp;Humidity;BMP_temperature;BMP_pressure;BME280_temperature;BME280_humidity;BME280_pressure;Samples;Min_cycle;Max_cycle;Signal;HPM_P1;HPM_P2
2022/02/08 00:00:12;;;;;;;2.50;1.80;;;;;;;20.30;19.99;95598.72;4937672;28;20034;-69
2022/02/08 00:02:42;;;;;;;2.55;1.50;;;;;;;20.35;19.94;95603.31;4929556;29;20419;-69
2022/02/08 00:05:13;;;;;;;1.88;1.40;;;;;;;20.30;20.04;95595.28;4919591;29;20082;-69
2022/02/08 00:07:47;;;;;;;2.40;1.50;;;;;;;20.32;19.90;95601.16;4931974;28;20389;-69
2022/02/08 00:10:15;;;;;;;4.40;1.70;;;;;;;20.31;19.88;95597.72;4942687;29;20175;-69
2022/02/08 00:12:40;;;;;;;3.25;1.83;;;;;;;20.31;19.82;95600.34;4920071;29;20090;-69
2022/02/08 00:15:06;;;;;;;1.63;1.40;;;;;;;20.33;19.73;95596.66;4916347;29;20035;-69
2022/02/08 00:17:32;;;;;;;2.20;1.55;;;;;;;20.33;19.90;95600.09;4933800;28;20118;-69
2022/02/08 00:19:59;;;;;;;2.47;1.45;;;;;;;20.33;19.84;95597.47;4933529;29;20041;-69
2022/02/08 00:22:26;;;;;;;2.97;1.70;;;;;;;20.31;19.73;95603.00;4925317;29;20034;-69
2022/02/08 00:24:51;;;;;;;3.05;1.48;;;;;;;20.31;19.95;95597.72;4938363;29;20031;-69
2022/02/08 00:27:16;;;;;;;2.47;1.38;;;;;;;20.34;19.88;95593.00;4918063;29;20307;-69
2022/02/08 00:29:42;;;;;;;2.40;1.40;;;;;;;20.33;19.52;95581.59;4926072;28;20051;-69
2022/02/08 00:32:16;;;;;;;3.67;1.67;;;;;;;20.30;19.89;95585.53;4920130;29;20020;-69
2022/02/08 00:34:42;;;;;;;3.83;1.70;;;;;;;20.31;19.72;95586.31;4937466;28;20055;-69
2022/02/08 00:37:07;;;;;;;3.33;1.60;;;;;;;20.33;19.82;95589.53;4936424;29;20023;-69
2022/02/08 00:39:34;;;;;;;3.88;1.73;;;;;;;20.36;19.79;95586.44;4950424;28;20031;-69
2022/02/08 00:42:13;;;;;;;2.15;1.48;;;;;;;20.33;19.58;95578.97;4929742;28;20028;-69
2022/02/08 00:50:04;;;;;;;2.03;1.50;;;;;;;20.36;19.77;95577.72;4932798;28;20066;-69
2022/02/08 00:52:38;;;;;;;2.90;1.48;;;;;;;20.31;19.63;95587.16;4952141;28;20031;-69
2022/02/08 00:55:04;;;;;;;1.98;1.40;;;;;;;20.34;19.74;95580.59;4955322;28;20027;-69
2022/02/08 00:57:30;;;;;;;2.97;1.88;;;;;;;20.33;19.79;95578.97;4925022;28;20037;-69
2022/02/08 00:59:55;;;;;;;2.67;1.60;;;;;;;20.35;19.78;95584.81;4948350;28;20086;-69
2022/02/08 01:02:21;;;;;;;2.88;2.00;;;;;;;20.35;19.53;95594.59;4940640;29;20042;-69
2022/02/08 01:04:54;;;;;;;3.10;1.73;;;;;;;20.35;19.69;95603.31;4923850;28;20035;-69
2022/02/08 01:07:32;;;;;;;3.15;1.50;;;;;;;20.35;19.75;95607.81;4922959;28;20082;-69
2022/02/08 01:10:00;;;;;;;2.80;1.80;;;;;;;20.34;19.61;95600.94;4951131;28;20109;-69
2022/02/08 01:12:27;;;;;;;3.45;1.80;;;;;;;20.31;19.48;95603.00;4916672;29;20079;-69
2022/02/08 01:14:54;;;;;;;2.53;1.60;;;;;;;20.35;19.49;95602.53;4922889;28;20035;-69
2022/02/08 01:17:21;;;;;;;2.63;1.75;;;;;;;20.35;19.46;95599.88;4926702;28;20042;-68
2022/02/08 01:19:55;;;;;;;3.10;1.60;;;;;;;20.37;19.47;95600.44;4927635;28;20031;-69
2022/02/08 01:22:25;;;;;;;2.60;1.60;;;;;;;20.32;19.57;95598.50;4930416;28;20027;-69
2022/02/08 01:24:51;;;;;;;2.35;1.70;;;;;;;20.37;19.30;95605.72;4939120;28;20037;-69
2022/02/08 01:27:23;;;;;;;2.90;1.67;;;;;;;20.35;19.47;95605.16;4924836;28;20031;-69
2022/02/08 01:40:13;;;;;;;3.08;1.80;;;;;;;20.35;19.52;95611.25;4936024;28;20045;-69
2022/02/08 01:43:38;;;;;;;2.65;1.50;;;;;;;20.33;19.83;95612.50;4924008;28;20028;-68
2022/02/08 01:46:03;;;;;;;2.85;1.60;;;;;;;20.39;19.53;95614.22;4938051;28;20035;-69
2022/02/08 01:51:18;;;;;;;;;;;;;;;20.89;19.00;95604.00;4933673;28;20022;-69
2022/02/08 01:53:44;;;;;;;2.47;1.55;;;;;;;20.49;19.64;95614.47;4952020;28;19922;-69
2022/02/08 01:56:09;;;;;;;4.18;1.60;;;;;;;20.44;19.34;95614.34;4926893;28;20031;-69
2022/02/08 01:58:35;;;;;;;2.55;1.50;;;;;;;20.41;19.38;95612.97;4917217;28;20035;-69
2022/02/08 02:01:00;;;;;;;2.30;1.50;;;;;;;20.40;19.48;95610.56;4950002;28;20046;-69
2022/02/08 02:03:26;;;;;;;1.85;1.17;;;;;;;20.40;19.62;95605.28;4956723;28;20038;-69
2022/02/08 02:05:52;;;;;;;2.78;1.42;;;;;;;20.42;19.68;95608.50;4932629;28;20035;-69
2022/02/08 02:08:17;;;;;;;3.05;1.25;;;;;;;20.39;19.79;95612.41;4939866;28;20031;-69
2022/02/08 02:10:42;;;;;;;2.47;1.30;;;;;;;20.37;19.65;95605.72;4952444;28;20037;-69
2022/02/08 02:13:43;;;;;;;2.00;1.30;;;;;;;20.38;19.78;95607.34;4942071;28;20075;-69
2022/02/08 02:16:13;;;;;;;1.85;1.20;;;;;;;20.44;19.50;95611.72;4938151;29;20039;-69
2022/02/08 02:18:38;;;;;;;2.05;1.25;;;;;;;20.45;19.54;95614.13;4918194;29;20047;-69
2022/02/08 02:21:04;;;;;;;2.33;1.20;;;;;;;20.41;19.58;95609.50;4941217;28;20056;-69
2022/02/08 02:23:30;;;;;;;2.08;1.08;;;;;;;20.39;19.99;95611.59;4917130;29;20032;-69
2022/02/08 02:25:56;;;;;;;2.33;1.20;;;;;;;20.39;19.72;95609.78;4933103;28;20118;-69
2022/02/08 02:28:21;;;;;;;1.55;1.30;;;;;;;20.41;19.94;95612.16;4918885;29;20027;-69
2022/02/08 02:30:47;;;;;;;2.47;1.40;;;;;;;20.42;19.86;95622.50;4932400;28;20045;-69
2022/02/08 02:33:13;;;;;;;1.88;1.20;;;;;;;20.42;19.81;95619.88;4910449;29;20027;-69
2022/02/08 02:35:38;;;;;;;1.95;1.23;;;;;;;20.41;19.67;95622.72;4915539;29;20031;-69
2022/02/08 02:38:07;;;;;;;1.60;1.00;;;;;;;20.42;20.02;95629.63;4931820;29;20030;-69
2022/02/08 02:40:32;;;;;;;2.47;1.15;;;;;;;20.43;19.88;95639.19;4920392;29;20035;-69
2022/02/08 02:42:59;;;;;;;1.50;1.08;;;;;;;20.42;19.87;95641.00;4920526;29;20027;-69
2022/02/08 02:45:25;;;;;;;1.52;1.00;;;;;;;20.46;19.95;95641.34;4919092;28;20030;-69
2022/02/08 02:47:52;;;;;;;2.83;1.20;;;;;;;20.45;20.30;95640.56;4921636;28;20031;-69
2022/02/08 02:50:18;;;;;;;1.70;1.00;;;;;;;20.45;19.87;95645.84;4943285;29;20031;-69
2022/02/08 02:52:43;;;;;;;1.45;1.10;;;;;;;20.45;19.86;95645.84;4946752;29;20031;-69
2022/02/08 02:55:09;;;;;;;1.42;1.08;;;;;;;20.47;19.95;95645.63;4938400;29;20035;-69
2022/02/08 02:57:34;;;;;;;1.77;0.93;;;;;;;20.47;20.12;95648.25;4929759;28;20034;-68
2022/02/08 03:00:07;;;;;;;1.75;1.08;;;;;;;20.48;20.01;95649.84;4917846;28;20038;-69
2022/02/08 03:03:08;;;;;;;1.33;1.00;;;;;;;20.46;20.05;95651.91;4938227;29;20035;-69
2022/02/08 03:05:54;;;;;;;2.03;1.00;;;;;;;20.53;19.93;95652.63;4953517;28;20026;-69
2022/02/08 03:19:20;;;;;;;1.58;1.00;;;;;;;20.46;20.31;95658.00;4914937;29;20103;-69
2022/02/08 03:21:45;;;;;;;1.63;1.00;;;;;;;20.45;20.04;95656.41;4919608;29;20035;-69
2022/02/08 03:24:10;;;;;;;2.13;1.00;;;;;;;20.45;20.16;95659.03;4926918;29;20042;-69
2022/02/08 03:26:36;;;;;;;1.60;1.02;;;;;;;20.47;19.95;95651.69;4897291;29;20119;-69
2022/02/08 03:29:01;;;;;;;2.67;1.20;;;;;;;20.48;20.16;95649.84;4898380;29;20036;-69
2022/02/08 03:31:27;;;;;;;1.75;1.00;;;;;;;20.47;20.28;95648.25;4912427;29;20464;-69
2022/02/08 03:33:52;;;;;;;1.38;0.95;;;;;;;20.47;19.87;95649.06;4899277;29;20458;-69
2022/02/08 03:36:18;;;;;;;1.52;0.90;;;;;;;20.49;20.15;95646.19;4911959;29;20043;-69
2022/02/08 03:38:47;;;;;;;2.17;0.82;;;;;;;20.51;20.27;95644.13;4903122;29;20036;-69
2022/02/08 03:41:12;;;;;;;1.65;0.90;;;;;;;20.48;20.07;95650.66;4928400;29;20028;-69
2022/02/08 03:43:49;;;;;;;2.00;1.10;;;;;;;20.47;20.57;95654.34;4890588;29;20071;-69
2022/02/08 03:46:29;;;;;;;1.80;0.88;;;;;;;20.49;20.87;95656.75;4945483;28;20034;-69
2022/02/08 03:48:55;;;;;;;2.42;1.10;;;;;;;20.48;20.29;95661.22;4940035;29;20059;-69
2022/02/08 03:51:26;;;;;;;2.10;1.10;;;;;;;20.45;20.17;95660.91;4929574;29;20024;-69
2022/02/08 03:53:51;;;;;;;1.60;1.10;;;;;;;20.47;20.07;95661.47;4936370;28;20054;-69
2022/02/08 03:56:21;;;;;;;2.20;1.20;;;;;;;20.48;20.36;95665.69;4941688;28;20034;-69
2022/02/08 03:58:46;;;;;;;1.85;1.05;;;;;;;20.48;20.22;95663.84;4937455;29;20276;-69
2022/02/08 04:03:43;;;;;;;1.73;0.95;;;;;;;20.50;20.23;95669.75;4921731;29;20035;-68
2022/02/08 04:06:09;;;;;;;2.67;1.15;;;;;;;20.49;20.19;95673.41;4918293;29;20066;-68
2022/02/08 04:08:35;;;;;;;1.70;1.00;;;;;;;20.50;20.14;95680.31;4924716;29;20031;-69
2022/02/08 04:11:01;;;;;;;1.95;1.00;;;;;;;20.50;20.26;95674.19;4914232;29;20046;-69
2022/02/08 04:13:39;;;;;;;1.25;0.90;;;;;;;20.48;20.22;95682.34;4933292;29;20026;-69
2022/02/08 04:16:13;;;;;;;2.17;0.88;;;;;;;20.48;19.98;95681.56;4942960;28;20050;-69
2022/02/08 04:19:19;;;;;;;1.75;0.88;;;;;;;20.52;20.33;95688.00;4929619;28;20106;-69
2022/02/08 04:43:23;;;;;;;1.58;0.98;;;;;;;20.52;20.43;95690.63;4924220;28;20036;-69
2022/02/08 04:45:57;;;;;;;;;;;;;;;;;;;;;
2022/02/08 04:50:58;;;;;;;1.85;0.93;;;;;;;20.52;20.25;95682.69;4926555;28;20034;-69
2022/02/08 04:53:33;;;;;;;1.90;0.90;;;;;;;20.51;20.32;95678.47;4936101;28;20162;-69
2022/02/08 04:56:09;;;;;;;2.08;0.90;;;;;;;20.50;20.32;95675.03;4933676;29;20027;-69
2022/02/08 04:58:44;;;;;;;2.65;1.27;;;;;;;20.52;20.37;95674.78;4929314;28;20034;-69
2022/02/08 05:01:41;;;;;;;1.98;1.05;;;;;;;20.53;19.79;95668.47;4939172;28;20103;-69
2022/02/08 05:45:01;;;;;;;3.08;1.90;;;;;;;20.49;19.99;95715.69;4951388;28;20035;-69
2022/02/08 05:47:27;;;;;;;2.22;1.67;;;;;;;20.50;20.19;95716.47;4935045;29;20035;-69
2022/02/08 05:50:11;;;;;;;1.90;1.60;;;;;;;20.50;20.14;95719.94;4940356;28;20082;-69
2022/02/08 05:55:20;;;;;;;2.33;1.67;;;;;;;20.52;19.94;95717.06;4930441;28;20098;-68
2022/02/08 05:57:46;;;;;;;2.35;1.60;;;;;;;20.52;19.78;95719.69;4902965;29;20046;-69
2022/02/08 06:00:12;;;;;;;2.78;1.40;;;;;;;20.54;20.08;95722.91;4916366;28;20378;-69
2022/02/08 06:02:38;;;;;;;2.20;1.60;;;;;;;20.51;20.08;95718.91;4925915;28;20027;-69
2022/02/08 06:05:07;;;;;;;3.05;1.35;;;;;;;20.53;20.03;95716.03;4921349;28;20088;-69
2022/02/08 06:07:32;;;;;;;2.47;1.60;;;;;;;20.52;19.96;95719.69;4933035;28;20035;-69
2022/02/08 06:10:10;;;;;;;1.48;1.30;;;;;;;20.51;19.90;95713.63;4935922;28;20126;-69
2022/02/08 06:12:47;;;;;;;1.55;1.20;;;;;;;20.51;20.16;95723.38;4938690;29;20027;-69
2022/02/08 06:15:14;;;;;;;1.67;1.00;;;;;;;20.53;19.91;95709.97;4932634;28;20041;-69
2022/02/08 06:17:40;;;;;;;1.80;1.30;;;;;;;20.54;19.85;95719.47;4901848;29;20031;-69
2022/02/08 06:20:07;;;;;;;1.67;1.20;;;;;;;20.53;20.06;95723.16;4915966;28;20046;-69
2022/02/08 06:22:33;;;;;;;2.80;1.20;;;;;;;20.52;20.06;95727.63;4914391;29;20039;-69
2022/02/08 06:25:13;;;;;;;3.00;1.33;;;;;;;20.54;19.77;95724.75;4929781;29;20050;-69
2022/02/08 06:27:40;;;;;;;1.77;1.35;;;;;;;20.56;19.83;95731.44;4930974;29;20038;-69
2022/02/08 06:30:06;;;;;;;1.75;1.10;;;;;;;20.54;20.02;95732.69;4931375;28;20030;-69
2022/02/08 06:32:33;;;;;;;1.30;1.02;;;;;;;20.54;20.04;95741.41;4913031;28;20030;-69
2022/02/08 06:35:05;;;;;;;2.30;1.20;;;;;;;20.56;20.09;95738.56;4937412;28;20023;-69
2022/02/08 06:37:34;;;;;;;2.90;1.40;;;;;;;20.56;20.00;95741.19;4922822;28;20040;-68
2022/02/08 06:40:09;;;;;;;1.35;1.20;;;;;;;20.56;19.88;95735.91;4935828;28;20117;-68
2022/02/08 06:42:35;;;;;;;1.92;1.23;;;;;;;20.58;20.17;95729.38;4925026;28;20035;-69
2022/02/08 06:45:02;;;;;;;3.15;1.60;;;;;;;20.57;19.96;95727.75;4916951;29;20035;-69
2022/02/08 06:47:27;;;;;;;2.20;1.27;;;;;;;20.56;20.04;95734.09;4910249;29;20043;-69
2022/02/08 06:49:53;;;;;;;1.83;1.30;;;;;;;20.58;20.00;95725.91;4927936;29;20030;-69
2022/02/08 06:52:19;;;;;;;2.70;1.23;;;;;;;20.57;20.21;95732.25;4933365;28;20043;-69
2022/02/08 06:54:44;;;;;;;2.63;1.33;;;;;;;20.58;20.22;95739.13;4933919;29;20038;-68
2022/02/08 06:57:10;;;;;;;2.63;1.20;;;;;;;20.56;20.17;95734.09;4935100;28;20035;-69
2022/02/08 06:59:38;;;;;;;2.70;1.30;;;;;;;20.58;19.80;95741.78;4935814;28;20043;-68
2022/02/08 07:02:06;;;;;;;2.40;1.40;;;;;;;20.56;19.89;95741.19;4944063;28;20050;-69
2022/02/08 07:04:32;;;;;;;2.40;1.40;;;;;;;20.57;20.06;95737.53;4929345;28;20045;-69
2022/02/08 07:06:57;;;;;;;1.75;1.23;;;;;;;20.57;19.96;95743.63;4917781;29;20028;-69
2022/02/08 07:09:24;;;;;;;1.33;1.20;;;;;;;20.57;19.99;95743.63;4939351;28;20082;-69
2022/02/08 07:11:49;;;;;;;1.75;1.08;;;;;;;20.58;19.92;95741.78;4934403;28;20054;-69
2022/02/08 07:14:15;;;;;;;2.25;1.20;;;;;;;20.57;19.84;95738.31;4918239;28;20027;-69
2022/02/08 07:16:40;;;;;;;2.05;1.20;;;;;;;20.59;19.96;95746.03;4926313;28;20045;-69
2022/02/08 07:19:15;;;;;;;2.50;1.40;;;;;;;20.56;20.14;95742.03;4922497;28;20031;-69
2022/02/08 07:21:41;;;;;;;2.50;1.20;;;;;;;20.59;19.41;95746.03;4911661;29;20046;-69
2022/02/08 07:24:06;;;;;;;2.30;1.10;;;;;;;20.59;19.80;95746.03;4921347;28;20031;-69
2022/02/08 07:26:32;;;;;;;3.03;1.20;;;;;;;20.59;19.72;95751.31;4942638;28;20106;-69
2022/02/08 07:28:57;;;;;;;2.53;1.00;;;;;;;20.59;19.90;95752.13;4937698;28;20031;-69
2022/02/08 07:31:27;;;;;;;2.13;1.20;;;;;;;20.60;19.94;95755.59;4925025;28;20031;-69
2022/02/08 07:34:14;;;;;;;3.42;1.35;;;;;;;20.62;19.98;95759.63;4929305;28;20023;-69
2022/02/08 07:39:09;;;;;;;1.83;1.20;;;;;;;20.58;19.72;95761.09;4932829;28;20035;-69
2022/02/08 07:41:36;;;;;;;1.77;1.10;;;;;;;20.59;19.94;95744.19;4935204;29;20050;-67
2022/02/08 07:44:01;;;;;;;1.75;1.10;;;;;;;20.58;19.96;95755.81;4932588;28;20130;-68
2022/02/08 07:46:27;;;;;;;2.35;1.17;;;;;;;20.59;20.09;95760.03;4928306;28;20105;-68
2022/02/08 07:49:05;;;;;;;2.60;1.40;;;;;;;20.61;20.00;95763.28;4932265;29;20051;-68
2022/02/08 07:51:32;;;;;;;2.20;1.40;;;;;;;20.58;20.17;95765.56;4938734;28;20035;-67
2022/02/08 07:53:59;;;;;;;2.28;1.67;;;;;;;20.57;20.09;95762.13;4932541;28;20038;-68
2022/02/08 07:56:24;;;;;;;3.53;1.50;;;;;;;20.55;20.04;95763.38;4924054;28;20105;-68
2022/02/08 07:58:49;;;;;;;2.38;1.70;;;;;;;20.53;19.84;95766.25;4926073;29;20027;-68
2022/02/08 08:01:15;;;;;;;2.22;1.70;;;;;;;20.48;20.07;95761.63;4921431;28;20031;-68
2022/02/08 08:03:41;;;;;;;2.35;1.70;;;;;;;20.45;20.08;95753.38;4930686;28;20034;-69
2022/02/08 08:06:11;;;;;;;2.33;1.75;;;;;;;20.38;20.20;95766.66;4933342;28;20038;-69
2022/02/08 08:08:42;;;;;;;2.60;1.83;;;;;;;20.38;20.37;95761.38;4922570;29;20194;-70
2022/02/08 08:11:14;;;;;;;2.53;1.50;;;;;;;20.45;20.18;95759.44;4937226;28;20031;-67
2022/02/08 08:13:47;;;;;;;2.67;1.63;;;;;;;20.49;19.95;95763.25;4918200;28;20026;-68
2022/02/08 08:16:27;;;;;;;2.15;1.63;;;;;;;20.51;20.17;95757.75;4926147;28;20050;-68
2022/02/08 08:21:29;;;;;;;3.20;1.67;;;;;;;20.48;20.16;95758.19;4935071;28;20054;-68
2022/02/08 08:23:54;;;;;;;2.70;1.70;;;;;;;20.44;20.09;95755.19;4930050;29;20027;-67
2022/02/08 08:26:20;;;;;;;1.95;1.60;;;;;;;20.42;20.04;95759.09;4927511;29;20019;-67
2022/02/08 08:28:45;;;;;;;3.25;1.75;;;;;;;20.40;20.13;95750.59;4929257;29;20064;-67
2022/02/08 08:31:11;;;;;;;2.10;1.40;;;;;;;20.42;20.15;95748.53;4934624;29;20023;-66
2022/02/08 08:33:36;;;;;;;2.50;1.65;;;;;;;20.41;19.92;95741.63;4920762;29;20027;-67
2022/02/08 08:36:02;;;;;;;2.72;1.50;;;;;;;20.39;19.81;95738.41;4928204;28;20411;-68
2022/02/08 08:38:34;;;;;;;1.90;1.27;;;;;;;20.31;20.12;95732.44;4919135;28;20043;-66
2022/02/08 08:51:34;;;;;;;3.53;1.77;;;;;;;20.45;19.95;95726.94;4942321;28;20127;-66
2022/02/08 08:53:59;;;;;;;2.35;1.75;;;;;;;20.48;19.81;95723.84;4919854;29;20143;-66
2022/02/08 08:56:24;;;;;;;3.78;1.88;;;;;;;20.48;19.95;95724.63;4926763;28;20039;-66
2022/02/08 08:58:50;;;;;;;2.38;1.90;;;;;;;20.48;19.57;95723.84;4953069;28;20082;-68
2022/02/08 09:01:15;;;;;;;5.82;2.80;;;;;;;20.48;19.61;95723.84;4929937;28;20038;-67
2022/02/08 09:03:52;;;;;;;6.32;3.75;;;;;;;20.44;20.02;95726.13;4940958;29;20030;-67
2022/02/08 09:06:17;;;;;;;6.43;3.17;;;;;;;20.43;19.91;95723.72;4930316;28;20038;-67
2022/02/08 09:08:44;;;;;;;5.35;3.08;;;;;;;20.42;19.62;95724.75;4921227;29;20043;-67
2022/02/08 09:11:17;;;;;;;7.60;3.67;;;;;;;20.41;19.75;95723.13;4919988;28;20035;-66
2022/02/08 09:13:50;;;;;;;6.70;3.35;;;;;;;20.42;19.60;95714.19;4923696;28;20083;-66
2022/02/08 09:27:10;;;;;;;5.50;2.80;;;;;;;20.53;19.49;95716.03;4942522;28;20038;-66
2022/02/08 09:32:13;;;;;;;7.15;2.35;;;;;;;20.56;19.38;95712.94;4950296;28;20023;-67
2022/02/08 09:34:47;;;;;;;4.15;2.47;;;;;;;20.55;19.38;95713.16;4929780;28;20022;-66
2022/02/08 09:37:15;;;;;;;5.18;2.67;;;;;;;20.53;19.49;95716.03;4932140;28;20041;-66
2022/02/08 09:39:42;;;;;;;3.65;2.33;;;;;;;20.53;19.48;95713.41;4930763;28;20031;-65
2022/02/08 09:42:07;;;;;;;4.72;2.20;;;;;;;20.52;19.42;95711.78;4930469;28;20042;-66
2022/02/08 09:44:34;;;;;;;3.85;2.10;;;;;;;20.51;19.15;95712.81;4927060;29;20031;-66
2022/02/08 09:47:00;;;;;;;3.80;2.13;;;;;;;20.51;19.48;95710.97;4917733;29;20030;-67
2022/02/08 09:49:26;;;;;;;5.05;2.13;;;;;;;20.54;19.49;95716.84;4926001;28;20030;-63
2022/02/08 09:51:55;;;;;;;3.53;1.95;;;;;;;20.50;19.34;95722.59;4939706;29;20046;-66
2022/02/08 09:54:27;;;;;;;3.72;1.70;;;;;;;20.52;19.23;95719.69;4939405;28;20054;-65
2022/02/08 09:56:53;;;;;;;2.40;1.40;;;;;;;20.51;19.10;95718.91;4941632;28;20035;-68
2022/02/08 09:59:18;;;;;;;3.45;1.55;;;;;;;20.50;19.22;95713.84;4922539;28;20114;-68
2022/02/08 10:01:54;;;;;;;2.22;1.50;;;;;;;20.47;19.40;95712.47;4955111;28;20023;-68
2022/02/08 10:04:19;;;;;;;3.22;1.63;;;;;;;20.47;19.44;95711.66;4941253;28;20114;-68
2022/02/08 10:06:44;;;;;;;2.13;1.30;;;;;;;20.46;19.21;95707.41;4918865;28;20042;-69
2022/02/08 10:09:10;;;;;;;1.83;1.30;;;;;;;20.47;18.99;95716.94;4918941;29;20031;-69
2022/02/08 10:11:50;;;;;;;1.52;1.25;;;;;;;20.44;19.06;95704.97;4934306;29;20035;-68
2022/02/08 10:22:38;;;;;;;2.40;1.05;;;;;;;20.55;19.01;95713.97;4935936;28;20050;-68
2022/02/08 10:25:08;;;;;;;2.25;1.02;;;;;;;20.51;18.95;95703.03;4938220;28;20058;-68
2022/02/08 10:27:37;;;;;;;1.25;1.00;;;;;;;20.61;18.86;95697.22;4922390;28;20044;-68
2022/02/08 10:38:41;;;;;;;1.75;1.00;;;;;;;20.57;18.64;95685.47;4908330;29;20094;-68
2022/02/08 10:41:17;;;;;;;1.70;1.20;;;;;;;20.62;18.86;95688.28;4912614;29;20079;-68
2022/02/08 10:43:43;;;;;;;2.47;0.90;;;;;;;20.65;18.79;95687.00;4921722;29;20035;-68
2022/02/08 10:46:18;;;;;;;2.28;1.17;;;;;;;20.63;19.05;95681.94;4908756;29;20031;-68
2022/02/08 10:48:44;;;;;;;1.75;1.10;;;;;;;20.65;18.81;95681.72;4911096;29;20119;-69
2022/02/08 10:51:09;;;;;;;1.92;0.98;;;;;;;20.63;18.86;95678.50;4910572;29;20031;-69
2022/02/08 10:53:40;;;;;;;2.00;0.90;;;;;;;20.62;18.58;95674.22;4902230;29;20036;-69
2022/02/08 10:56:10;;;;;;;1.70;0.90;;;;;;;20.59;18.94;95672.84;4922769;29;20035;-68
2022/02/08 10:58:46;;;;;;;1.90;0.90;;;;;;;20.62;18.39;95672.41;4891664;29;20035;-68
2022/02/08 11:01:25;;;;;;;1.23;0.88;;;;;;;20.65;18.61;95669.31;4907461;29;20135;-69
2022/02/08 11:06:26;;;;;;;1.50;1.00;;;;;;;20.71;18.28;95662.28;4918310;29;20051;-70
2022/02/08 11:12:23;;;;;;;1.63;0.70;;;;;;;20.76;18.39;95656.31;4927696;29;20046;-68
2022/02/08 11:25:29;;;;;;;1.52;1.13;;;;;;;20.76;18.84;95645.75;4927960;29;20029;-68
2022/02/08 11:28:21;;;;;;;1.40;0.73;;;;;;;20.86;18.83;95653.91;4916523;29;20063;-69
2022/02/08 11:31:06;;;;;;;2.35;0.90;;;;;;;20.81;18.89;95649.31;4918385;29;20039;-69
2022/02/08 11:50:37;;;;;;;1.00;0.80;;;;;;;20.87;19.39;95626.44;4924912;28;20046;-68
2022/02/08 12:00:43;;;;;;;1.70;0.95;;;;;;;20.88;19.31;95614.81;4948093;28;20087;-69
2022/02/08 12:03:54;;;;;;;2.40;1.05;;;;;;;20.86;19.74;95615.03;4929804;29;20042;-68
2022/02/08 12:09:07;;;;;;;2.65;1.00;;;;;;;20.93;20.11;95603.56;4926453;29;20050;-68
2022/02/08 12:12:05;;;;;;;1.42;1.00;;;;;;;20.91;20.21;95603.78;4929135;29;20031;-68
2022/02/08 12:31:29;;;;;;;1.63;1.02;;;;;;;20.94;20.68;95578.69;4904121;29;20111;-68
2022/02/08 12:56:27;;;;;;;1.35;0.80;;;;;;;20.95;20.58;95557.31;4928556;28;20070;-67
2022/02/08 14:02:00;;;;;;;1.45;0.60;;;;;;;20.97;18.39;95536.72;4952353;28;20045;-68
2022/02/08 14:05:24;;;;;;;0.70;0.60;;;;;;;20.95;18.60;95533.53;4931012;28;20027;-68
2022/02/08 14:07:36;;;;;;;3.30;0.60;;;;;;;21.03;18.39;95535.00;4939394;28;20071;-68
2022/02/08 14:20:57;;;;;;;0.55;0.50;;;;;;;20.99;18.51;95545.22;4946541;28;20039;-68
2022/02/08 14:23:51;;;;;;;0.95;0.43;;;;;;;20.97;18.69;95542.03;4924379;28;20027;-68
2022/02/08 14:31:44;;;;;;;;;;;;;;;;;;;;;
2022/02/08 15:07:57;;;;;;;2.00;0.77;;;;;;;21.11;19.94;95531.16;4805534;29;20042;-68
2022/02/08 15:10:30;;;;;;;0.50;0.50;;;;;;;21.17;19.73;95533.69;4792335;29;20039;-68
2022/02/08 15:13:01;;;;;;;0.60;0.60;;;;;;;21.12;20.00;95525.66;4789722;29;20050;-68
2022/02/08 15:15:34;;;;;;;3.03;0.70;;;;;;;21.11;19.94;95526.66;4823545;29;20041;-68
2022/02/08 15:18:00;;;;;;;1.25;0.40;;;;;;;21.08;19.71;95530.59;4835111;29;20105;-68
2022/02/08 15:20:26;;;;;;;1.40;0.52;;;;;;;21.09;20.08;95524.28;4870701;29;20036;-68
2022/02/08 15:22:59;;;;;;;1.38;0.60;;;;;;;21.05;20.21;95528.41;4862119;29;20037;-68
2022/02/08 15:25:36;;;;;;;1.80;0.60;;;;;;;21.08;19.80;95522.66;4873786;29;20033;-68
2022/02/08 15:28:03;;;;;;;1.02;0.60;;;;;;;21.08;19.64;95517.38;4856287;29;20037;-68
2022/02/08 15:30:30;;;;;;;0.90;0.60;;;;;;;21.08;19.86;95521.88;4856165;29;20036;-68
2022/02/08 15:32:55;;;;;;;0.40;0.40;;;;;;;21.08;19.91;95520.03;4861627;29;20033;-68
2022/02/08 15:35:21;;;;;;;1.00;0.50;;;;;;;21.09;19.90;95526.94;4873772;29;20116;-68
2022/02/08 15:37:46;;;;;;;1.15;0.60;;;;;;;21.09;19.83;95518.16;4867887;29;20123;-68
2022/02/08 15:40:14;;;;;;;1.60;0.70;;;;;;;21.08;20.07;95530.59;4863901;29;20035;-68
2022/02/08 15:42:41;;;;;;;1.20;0.65;;;;;;;21.07;20.08;95523.69;4867992;29;20083;-68
2022/02/08 15:45:30;;;;;;;1.42;0.65;;;;;;;21.04;20.10;95516.25;4928043;28;20043;-68
2022/02/08 15:47:58;;;;;;;1.15;0.63;;;;;;;21.06;19.75;95516.81;4926359;28;20035;-68
2022/02/08 15:50:35;;;;;;;0.68;0.50;;;;;;;21.08;20.06;95511.28;4932849;28;20074;-68
2022/02/08 16:17:40;;;;;;;1.25;0.60;;;;;;;21.00;18.97;95498.44;4898376;29;20036;-68
2022/02/08 16:26:10;;;;;;;1.67;1.05;;;;;;;20.98;18.87;95501.34;4900254;29;20069;-68
2022/02/08 16:28:29;;;;;;;0.85;0.60;;;;;;;21.01;18.76;95492.91;4896926;29;20063;-68
2022/02/08 16:58:54;;;;;;;1.17;0.88;;;;;;;20.95;19.38;95499.16;4823535;29;20049;-68
2022/02/08 17:01:24;;;;;;;1.90;1.00;;;;;;;20.94;19.39;95500.16;4808188;29;20048;-68
2022/02/08 17:03:51;;;;;;;2.03;1.00;;;;;;;20.97;19.44;95501.56;4821159;29;20051;-68
2022/02/08 17:06:22;;;;;;;1.52;1.10;;;;;;;20.90;19.48;95496.41;4807241;29;20046;-68
2022/02/08 17:08:49;;;;;;;2.00;1.00;;;;;;;20.96;19.33;95503.41;4803396;29;20189;-68
2022/02/08 17:11:22;;;;;;;1.60;1.10;;;;;;;20.92;19.60;95490.88;4807111;29;20038;-68
2022/02/08 17:14:15;;;;;;;2.22;1.05;;;;;;;20.92;19.48;95496.16;4801413;29;20046;-68
2022/02/08 17:17:06;;;;;;;1.35;1.00;;;;;;;20.92;19.78;95502.25;4826068;29;20117;-68
2022/02/08 17:19:55;;;;;;;1.38;1.08;;;;;;;20.93;19.45;95505.72;4818659;29;20065;-68
2022/02/08 17:49:38;;;;;;;1.38;1.20;;;;;;;20.78;20.82;95511.50;4945186;28;20038;-68
2022/02/08 17:52:03;;;;;;;4.85;1.42;;;;;;;20.75;20.54;95511.97;4917714;28;20039;-68
2022/02/08 17:54:29;;;;;;;2.80;1.30;;;;;;;20.76;20.18;95513.59;4939596;28;20027;-68
2022/02/08 17:56:57;;;;;;;2.30;1.40;;;;;;;20.77;20.18;95513.34;4938092;28;20031;-68
2022/02/08 17:59:24;;;;;;;2.00;1.40;;;;;;;20.73;20.25;95517.47;4947773;28;20091;-68
2022/02/08 18:01:50;;;;;;;3.13;1.30;;;;;;;20.73;20.24;95520.13;4942975;28;20039;-69
2022/02/08 18:04:16;;;;;;;2.08;1.38;;;;;;;20.72;20.25;95521.19;4947916;28;20038;-67
2022/02/08 18:06:41;;;;;;;2.17;1.50;;;;;;;20.74;20.04;95520.94;4920353;29;20039;-68
2022/02/08 18:09:13;;;;;;;2.25;1.50;;;;;;;20.70;20.50;95517.97;4935345;28;20042;-66
2022/02/08 18:11:42;;;;;;;3.53;1.80;;;;;;;20.76;20.07;95519.66;4935569;28;20030;-66
2022/02/08 18:14:09;;;;;;;3.10;1.58;;;;;;;20.78;20.15;95516.78;4924708;28;20026;-66
2022/02/08 18:16:36;;;;;;;2.95;1.65;;;;;;;20.75;20.13;95522.53;4921400;28;20031;-67
2022/02/08 18:19:30;;;;;;;3.45;1.70;;;;;;;20.78;20.43;95522.88;4917450;28;20050;-67
2022/02/08 18:22:08;;;;;;;4.15;1.67;;;;;;;20.83;20.12;95530.13;4955181;28;20310;-68
2022/02/08 19:23:49;;;;;;;6.10;3.47;;;;;;;20.88;19.69;95498.47;4957583;28;20118;-68
2022/02/08 19:26:17;;;;;;;5.25;3.70;;;;;;;20.91;19.71;95505.16;4939743;28;20031;-68
